createdAt,value
2017-09-18T00:01:18.336Z,68.60
2017-09-18T00:03:46.582Z,67.90
2017-09-18T00:06:14.825Z,69.50
2017-09-18T00:08:43.485Z,69.40
2017-09-18T00:11:11.730Z,71.20
2017-09-18T00:13:40.779Z,69.40
2017-09-18T00:16:09.042Z,69.40
2017-09-18T00:18:37.278Z,68.90
2017-09-18T00:21:06.286Z,72.10
2017-09-18T00:23:34.551Z,72.10
2017-09-18T00:26:03.562Z,71.90
2017-09-18T00:28:31.806Z,71.80
2017-09-18T00:31:00.434Z,71.30
2017-09-18T00:33:28.676Z,74.30
2017-09-18T00:35:57.682Z,74.10
2017-09-18T00:38:25.952Z,73.90
2017-09-18T00:40:54.962Z,74.60
2017-09-18T00:43:23.209Z,74.60
2017-09-18T00:45:52.242Z,72.90
2017-09-18T00:48:20.482Z,72.50
2017-09-18T00:50:48.722Z,72.40
2017-09-18T00:53:17.318Z,73.70
2017-09-18T00:55:45.567Z,82.10
2017-09-18T00:58:13.814Z,75.60
2017-09-18T01:00:42.163Z,81.20
2017-09-18T01:03:10.606Z,76.00
2017-09-18T01:05:39.100Z,76.60
2017-09-18T01:08:07.342Z,77.40
2017-09-18T01:10:35.585Z,76.10
2017-09-18T01:13:03.825Z,76.70
2017-09-18T01:15:32.798Z,74.00
2017-09-18T01:18:01.037Z,73.30
2017-09-18T01:20:30.046Z,74.00
2017-09-18T01:22:58.315Z,74.10
2017-09-18T01:25:26.554Z,76.70
2017-09-18T01:27:54.797Z,77.60
2017-09-18T01:30:23.108Z,77.70
2017-09-18T01:32:51.342Z,76.00
2017-09-18T01:35:19.585Z,76.60
2017-09-18T01:37:48.035Z,75.10
2017-09-18T01:40:16.286Z,80.30
2017-09-18T01:42:44.521Z,77.60
2017-09-18T01:45:13.555Z,75.80
2017-09-18T01:47:41.789Z,75.90
2017-09-18T01:50:10.030Z,76.60
2017-09-18T01:52:38.289Z,77.30
2017-09-18T01:55:06.531Z,75.60
2017-09-18T01:57:34.772Z,75.80
2017-09-18T02:00:03.317Z,79.20
2017-09-18T02:02:31.566Z,75.10
2017-09-18T02:05:01.226Z,74.40
2017-09-18T02:07:29.482Z,74.40
2017-09-18T02:09:57.734Z,77.60
2017-09-18T02:12:25.974Z,76.10
2017-09-18T02:14:54.242Z,77.20
2017-09-18T02:17:22.478Z,77.40
2017-09-18T02:19:50.722Z,77.80
2017-09-18T02:22:19.347Z,77.70
2017-09-18T02:24:47.598Z,76.80
2017-09-18T02:27:15.842Z,76.60
2017-09-18T02:29:44.142Z,75.70
2017-09-18T02:32:13.154Z,78.90
2017-09-18T02:34:41.397Z,78.80
2017-09-18T02:37:09.882Z,79.00
2017-09-18T02:39:38.116Z,78.60
2017-09-18T02:42:06.362Z,80.60
2017-09-18T02:44:35.075Z,77.90
2017-09-18T02:47:03.378Z,78.40
2017-09-18T02:49:31.623Z,77.50
2017-09-18T02:51:59.877Z,79.50
2017-09-18T02:54:28.122Z,78.80
2017-09-18T02:56:56.365Z,77.40
2017-09-18T02:59:24.627Z,85.10
2017-09-18T03:01:52.874Z,80.90
2017-09-18T03:04:21.869Z,79.70
2017-09-18T03:06:51.311Z,79.80
2017-09-18T03:09:19.560Z,79.40
2017-09-18T03:11:47.807Z,78.90
2017-09-18T03:14:16.894Z,79.20
2017-09-18T03:16:45.134Z,79.00
2017-09-18T03:19:13.380Z,79.20
2017-09-18T03:21:41.651Z,78.80
2017-09-18T03:24:09.890Z,79.50
2017-09-18T03:26:38.133Z,80.20
2017-09-18T03:29:06.519Z,80.20
2017-09-18T03:31:34.766Z,79.10
2017-09-18T03:34:03.007Z,78.10
2017-09-18T03:36:31.321Z,78.30
2017-09-18T03:39:00.314Z,78.90
2017-09-18T03:41:28.606Z,78.90
2017-09-18T03:43:56.853Z,79.60
2017-09-18T03:46:25.098Z,79.40
2017-09-18T03:48:53.352Z,79.00
2017-09-18T03:51:22.222Z,81.00
2017-09-18T03:53:50.467Z,80.90
2017-09-18T03:56:19.479Z,80.90
2017-09-18T03:58:47.746Z,80.90
2017-09-18T04:01:15.986Z,80.10
2017-09-18T04:03:44.234Z,81.60
2017-09-18T04:06:12.489Z,87.40
2017-09-18T04:08:41.133Z,81.50
2017-09-18T04:11:10.147Z,84.80
2017-09-18T04:13:39.430Z,81.80
2017-09-18T04:16:07.778Z,81.80
2017-09-18T04:18:36.022Z,82.10
2017-09-18T04:21:04.290Z,84.20
2017-09-18T04:23:32.532Z,82.60
2017-09-18T04:26:00.994Z,81.90
2017-09-18T04:28:29.293Z,84.00
2017-09-18T04:30:57.538Z,81.70
2017-09-18T04:33:25.778Z,83.50
2017-09-18T04:35:54.282Z,85.30
2017-09-18T04:38:22.521Z,86.80
2017-09-18T04:40:51.529Z,83.20
2017-09-18T04:43:19.983Z,83.20
2017-09-18T04:45:48.292Z,82.40
2017-09-18T04:48:16.550Z,83.30
2017-09-18T04:50:45.583Z,83.60
2017-09-18T04:53:13.835Z,83.60
2017-09-18T04:55:42.082Z,81.80
2017-09-18T04:58:10.613Z,82.30
2017-09-18T05:00:38.854Z,81.60
2017-09-18T05:03:07.858Z,82.90
2017-09-18T05:05:36.118Z,82.90
2017-09-18T05:08:04.362Z,86.00
2017-09-18T05:10:32.870Z,83.60
2017-09-18T05:13:01.898Z,83.50
2017-09-18T05:15:30.145Z,83.50
2017-09-18T05:17:59.190Z,85.70
2017-09-18T05:20:27.874Z,85.70
2017-09-18T05:22:56.122Z,85.90
2017-09-18T05:25:24.749Z,87.10
2017-09-18T05:27:53.129Z,85.90
2017-09-18T05:30:21.362Z,85.70
2017-09-18T05:32:49.602Z,84.50
2017-09-18T05:35:17.866Z,83.50
2017-09-18T05:37:46.113Z,84.00
2017-09-18T05:40:14.370Z,84.40
2017-09-18T05:42:42.988Z,85.60
2017-09-18T05:45:11.210Z,85.00
2017-09-18T05:47:39.453Z,84.10
2017-09-18T05:50:07.726Z,84.00
2017-09-18T05:52:35.965Z,83.10
2017-09-18T05:55:04.222Z,84.50
2017-09-18T05:57:33.249Z,84.60
2017-09-18T06:00:01.489Z,84.50
2017-09-18T06:02:30.502Z,83.80
2017-09-18T06:04:58.862Z,83.80
2017-09-18T06:07:27.875Z,83.10
2017-09-18T06:09:56.121Z,83.20
2017-09-18T06:12:25.044Z,83.50
2017-09-18T06:14:53.288Z,82.70
2017-09-18T06:17:21.529Z,83.80
2017-09-18T06:19:49.792Z,82.30
2017-09-18T06:22:18.030Z,82.60
2017-09-18T06:24:46.269Z,82.90
2017-09-18T06:27:14.673Z,83.90
2017-09-18T06:29:43.688Z,83.80
2017-09-18T06:32:12.690Z,84.70
2017-09-18T06:34:40.997Z,83.90
2017-09-18T06:37:09.389Z,85.40
2017-09-18T06:39:37.623Z,82.30
2017-09-18T06:42:05.903Z,82.30
2017-09-18T06:44:34.146Z,83.20
2017-09-18T06:47:02.399Z,83.20
2017-09-18T06:49:31.358Z,83.00
2017-09-18T06:51:59.598Z,82.40
2017-09-18T06:54:28.610Z,84.30
2017-09-18T06:56:56.880Z,84.20
2017-09-18T06:59:25.114Z,81.60
2017-09-18T07:01:54.276Z,80.90
2017-09-18T07:04:22.562Z,79.90
2017-09-18T07:06:50.802Z,79.70
2017-09-18T07:09:19.816Z,79.90
2017-09-18T07:11:48.167Z,79.90
2017-09-18T07:14:17.574Z,81.50
2017-09-18T07:16:46.582Z,82.90
2017-09-18T07:19:14.862Z,82.80
2017-09-18T07:21:43.106Z,80.10
2017-09-18T07:24:11.347Z,83.40
2017-09-18T07:26:39.614Z,82.60
2017-09-18T07:29:07.862Z,81.20
2017-09-18T07:31:36.102Z,81.70
2017-09-18T07:34:04.957Z,80.90
2017-09-18T07:36:33.191Z,81.10
2017-09-18T07:39:02.206Z,80.70
2017-09-18T07:41:30.483Z,80.80
2017-09-18T07:43:58.738Z,79.70
2017-09-18T07:46:27.762Z,77.50
2017-09-18T07:48:56.031Z,77.50
2017-09-18T07:51:24.273Z,77.80
2017-09-18T07:53:52.527Z,76.90
2017-09-18T07:56:21.126Z,74.30
2017-09-18T07:58:49.368Z,77.70
2017-09-18T08:01:17.622Z,75.80
2017-09-18T08:03:45.892Z,77.10
2017-09-18T08:06:14.138Z,76.40
2017-09-18T08:08:42.381Z,74.20
2017-09-18T08:11:10.643Z,73.90
2017-09-18T08:13:38.935Z,73.20
2017-09-18T08:16:07.629Z,72.50
2017-09-18T08:18:36.114Z,70.90
2017-09-18T08:21:04.389Z,70.60
2017-09-18T08:23:32.771Z,70.80
2017-09-18T08:26:01.177Z,69.70
2017-09-18T08:28:30.195Z,69.70
2017-09-18T08:30:58.434Z,69.60
2017-09-18T08:33:26.737Z,69.70
2017-09-18T08:35:54.967Z,68.60
2017-09-18T08:38:23.201Z,68.10
2017-09-18T08:40:51.598Z,68.40
2017-09-18T08:43:19.838Z,68.90
2017-09-18T08:45:48.889Z,67.80
2017-09-18T08:48:17.136Z,67.70
2017-09-18T08:50:45.374Z,67.10
2017-09-18T08:53:13.615Z,67.50
2017-09-18T08:55:42.022Z,66.10
2017-09-18T08:58:10.257Z,64.20
2017-09-18T09:00:38.502Z,66.00
2017-09-18T09:03:06.843Z,66.70
2017-09-18T09:05:35.086Z,66.60
2017-09-18T09:08:03.322Z,65.70
2017-09-18T09:10:32.353Z,65.90
2017-09-18T09:13:00.599Z,65.90
2017-09-18T09:15:29.606Z,67.60
2017-09-18T09:17:58.397Z,66.70
2017-09-18T09:20:26.638Z,65.50
2017-09-18T09:22:54.882Z,64.70
2017-09-18T09:25:23.565Z,66.60
2017-09-18T09:27:51.805Z,63.50
2017-09-18T09:30:20.058Z,61.80
2017-09-18T09:32:48.318Z,59.80
2017-09-18T09:35:16.675Z,61.50
2017-09-18T09:37:44.918Z,60.80
2017-09-18T09:40:13.193Z,60.50
2017-09-18T09:42:41.445Z,60.30
2017-09-18T09:45:09.690Z,62.20
2017-09-18T09:47:38.177Z,62.10
2017-09-18T09:50:06.417Z,59.50
2017-09-18T09:52:34.650Z,61.00
2017-09-18T09:55:02.922Z,60.90
2017-09-18T09:57:31.168Z,58.90
2017-09-18T09:59:59.408Z,59.40
2017-09-18T10:02:27.679Z,59.40
2017-09-18T10:04:55.914Z,58.80
2017-09-18T10:07:24.167Z,59.40
2017-09-18T10:09:52.566Z,59.10
2017-09-18T10:12:20.814Z,59.60
2017-09-18T10:14:49.202Z,59.40
2017-09-18T10:17:17.470Z,59.70
2017-09-18T10:19:45.802Z,59.70
2017-09-18T10:22:14.045Z,58.70
2017-09-18T10:24:42.309Z,58.20
2017-09-18T10:27:10.547Z,58.60
2017-09-18T10:29:38.871Z,59.30
2017-09-18T10:32:07.346Z,58.70
2017-09-18T10:34:35.573Z,58.50
2017-09-18T10:37:03.818Z,57.50
2017-09-18T10:39:32.091Z,58.60
2017-09-18T10:42:00.422Z,58.60
2017-09-18T10:44:28.670Z,58.20
2017-09-18T10:46:57.700Z,58.10
2017-09-18T10:49:25.978Z,58.00
2017-09-18T10:51:54.231Z,57.50
2017-09-18T10:54:22.631Z,55.40
2017-09-18T10:56:50.878Z,54.30
2017-09-18T10:59:19.120Z,54.20
2017-09-18T11:01:47.380Z,55.20
2017-09-18T11:04:15.694Z,52.70
2017-09-18T11:06:43.943Z,48.70
2017-09-18T11:09:12.203Z,49.20
2017-09-18T11:11:40.453Z,50.00
2017-09-18T11:14:08.685Z,48.70
2017-09-18T11:16:37.543Z,50.10
2017-09-18T11:19:05.812Z,52.40
2017-09-18T11:21:34.235Z,51.20
2017-09-18T11:24:03.317Z,52.70
2017-09-18T11:26:31.554Z,52.70
2017-09-18T11:28:59.797Z,51.30
2017-09-18T11:31:30.590Z,48.30
2017-09-18T11:33:59.862Z,48.30
2017-09-18T11:36:28.111Z,47.60
2017-09-18T11:38:57.686Z,49.60
2017-09-18T11:41:26.022Z,49.60
2017-09-18T11:43:55.771Z,50.20
2017-09-18T11:46:24.018Z,50.90
2017-09-18T11:48:52.253Z,48.10
2017-09-18T11:51:21.268Z,48.00
2017-09-18T11:53:50.285Z,46.40
2017-09-18T11:56:19.294Z,47.60
2017-09-18T11:58:47.542Z,47.60
2017-09-18T12:01:16.042Z,48.60
2017-09-18T12:03:44.289Z,49.00
2017-09-18T12:06:12.525Z,50.50
2017-09-18T12:08:40.794Z,51.20
2017-09-18T12:11:09.063Z,49.70
2017-09-18T12:13:37.314Z,49.20
2017-09-18T12:16:05.590Z,49.80
2017-09-18T12:18:34.002Z,49.70
2017-09-18T12:21:02.267Z,49.10
2017-09-18T12:23:31.797Z,48.60
2017-09-18T12:26:00.047Z,44.80
2017-09-18T12:28:30.295Z,41.00
2017-09-18T12:30:58.706Z,40.90
2017-09-18T12:33:27.722Z,45.00
2017-09-18T12:35:56.005Z,44.90
2017-09-18T12:38:24.269Z,46.20
2017-09-18T12:40:52.505Z,47.60
2017-09-18T12:43:20.751Z,47.80
2017-09-18T12:45:49.327Z,46.60
2017-09-18T12:48:17.582Z,46.90
2017-09-18T12:50:45.830Z,47.10
2017-09-18T12:53:15.060Z,52.20
2017-09-18T12:55:44.054Z,53.00
2017-09-18T12:58:12.298Z,53.00
2017-09-18T13:00:40.565Z,54.40
2017-09-18T13:03:08.833Z,54.50
2017-09-18T13:05:37.073Z,54.40
2017-09-18T13:08:05.676Z,55.40
2017-09-18T13:10:33.932Z,56.30
2017-09-18T13:13:02.349Z,56.60
2017-09-18T13:15:30.766Z,56.70
2017-09-18T13:18:00.959Z,57.60
2017-09-18T13:20:29.198Z,57.60
2017-09-18T13:22:57.463Z,58.00
2017-09-18T13:25:26.387Z,58.30
2017-09-18T13:27:54.781Z,59.30
2017-09-18T13:30:23.117Z,58.50
2017-09-18T13:32:51.713Z,57.70
2017-09-18T13:35:19.946Z,58.50
2017-09-18T13:37:49.281Z,52.90
2017-09-18T13:40:17.610Z,52.90
2017-09-18T13:42:45.850Z,52.10
2017-09-18T13:45:14.117Z,51.80
2017-09-18T13:47:42.365Z,50.10
2017-09-18T13:50:10.613Z,50.10
2017-09-18T13:52:39.254Z,51.20
2017-09-18T13:55:07.876Z,52.40
2017-09-18T13:57:37.413Z,54.20
2017-09-18T14:00:06.529Z,55.60
2017-09-18T14:02:36.606Z,55.50
2017-09-18T14:05:06.246Z,55.90
2017-09-18T14:07:34.526Z,55.70
2017-09-18T14:10:02.784Z,55.70
2017-09-18T14:12:31.879Z,56.50
2017-09-18T14:15:00.315Z,56.50
2017-09-18T14:17:28.538Z,57.70
2017-09-18T14:19:57.546Z,56.10
2017-09-18T14:22:25.805Z,56.10
2017-09-18T14:24:54.111Z,57.30
2017-09-18T14:27:22.705Z,60.90
2017-09-18T14:29:50.961Z,58.30
2017-09-18T14:32:19.208Z,57.50
2017-09-18T14:34:47.492Z,63.20
2017-09-18T14:37:16.082Z,58.40
2017-09-18T14:39:44.300Z,54.30
2017-09-18T14:42:12.541Z,48.30
2017-09-18T14:44:41.566Z,42.80
2017-09-18T14:47:09.801Z,42.80
2017-09-18T14:49:38.042Z,45.50
2017-09-18T14:52:06.313Z,46.40
2017-09-18T14:54:34.562Z,46.10
2017-09-18T14:57:02.797Z,47.40
2017-09-18T14:59:32.005Z,53.10
2017-09-18T15:02:00.238Z,53.00
2017-09-18T15:04:28.474Z,49.10
2017-09-18T15:06:56.742Z,46.40
2017-09-18T15:09:25.742Z,48.50
2017-09-18T15:11:53.984Z,48.50
2017-09-18T15:14:22.253Z,50.10
2017-09-18T15:16:50.489Z,51.00
2017-09-18T15:19:18.734Z,51.80
2017-09-18T15:21:47.352Z,52.30
2017-09-18T15:24:15.590Z,52.60
2017-09-18T15:26:43.825Z,52.30
2017-09-18T15:29:12.613Z,52.30
2017-09-18T15:31:40.890Z,52.70
2017-09-18T15:34:09.217Z,52.60
2017-09-18T15:36:37.577Z,52.80
2017-09-18T15:39:06.751Z,54.20
2017-09-18T15:41:34.981Z,54.20
2017-09-18T15:44:03.426Z,55.60
2017-09-18T15:46:31.713Z,56.00
2017-09-18T15:49:00.713Z,56.40
2017-09-18T15:51:29.746Z,55.60
2017-09-18T15:53:57.982Z,55.50
2017-09-18T15:56:26.993Z,56.30
2017-09-18T15:58:55.258Z,56.30
2017-09-18T16:01:23.503Z,57.00
2017-09-18T16:03:51.864Z,57.20
2017-09-18T16:06:20.759Z,58.30
2017-09-18T16:08:48.994Z,60.50
2017-09-18T16:11:17.229Z,61.10
2017-09-18T16:13:45.505Z,61.80
2017-09-18T16:16:13.749Z,62.40
2017-09-18T16:18:41.994Z,62.60
2017-09-18T16:21:11.123Z,63.20
2017-09-18T16:23:39.610Z,63.50
2017-09-18T16:26:07.946Z,68.10
2017-09-18T16:28:37.033Z,71.80
2017-09-18T16:31:05.626Z,71.80
2017-09-18T16:33:34.623Z,68.90
2017-09-18T16:36:02.990Z,68.80
2017-09-18T16:38:32.011Z,69.40
2017-09-18T16:41:00.245Z,69.20
2017-09-18T16:43:28.904Z,68.60
2017-09-18T16:45:58.326Z,66.70
2017-09-18T16:48:26.697Z,65.60
2017-09-18T16:50:55.141Z,67.90
2017-09-18T16:53:23.454Z,69.80
2017-09-18T16:55:52.774Z,68.80
2017-09-18T16:58:21.516Z,68.10
2017-09-18T17:00:49.814Z,68.10
2017-09-18T17:03:18.218Z,69.90
2017-09-18T17:05:46.690Z,69.90
2017-09-18T17:08:14.959Z,71.90
2017-09-18T17:10:43.344Z,72.60
2017-09-18T17:13:11.908Z,73.20
2017-09-18T17:15:40.218Z,71.20
2017-09-18T17:18:08.492Z,70.20
2017-09-18T17:20:37.794Z,73.80
2017-09-18T17:23:06.155Z,76.10
2017-09-18T17:25:34.523Z,72.50
2017-09-18T17:28:02.937Z,73.50
2017-09-18T17:30:33.150Z,74.00
2017-09-18T17:33:02.119Z,74.40
2017-09-18T17:35:30.646Z,76.30
2017-09-18T17:38:01.205Z,78.70
2017-09-18T17:40:30.461Z,76.20
2017-09-18T17:42:59.675Z,77.70
2017-09-18T17:45:28.694Z,76.10
2017-09-18T17:47:57.013Z,76.10
2017-09-18T17:50:25.289Z,77.50
2017-09-18T17:52:53.774Z,79.70
2017-09-18T17:55:22.153Z,79.00
2017-09-18T17:57:50.727Z,80.00
2017-09-18T18:00:22.890Z,78.00
2017-09-18T18:02:51.297Z,76.50
2017-09-18T18:05:19.645Z,78.40
2017-09-18T18:07:48.029Z,80.80
2017-09-18T18:10:16.454Z,82.00
2017-09-18T18:12:45.449Z,81.70
2017-09-18T18:15:13.701Z,80.70
2017-09-18T18:17:42.266Z,81.20
2017-09-18T18:20:10.534Z,83.20
2017-09-18T18:22:38.808Z,82.20
2017-09-18T18:25:08.291Z,81.80
2017-09-18T18:27:36.641Z,81.20
2017-09-18T18:30:06.826Z,83.10
2017-09-18T18:32:39.490Z,83.10
2017-09-18T18:35:08.505Z,83.00
2017-09-18T18:37:36.749Z,82.70
2017-09-18T18:40:05.086Z,83.10
2017-09-18T18:42:36.402Z,83.20
2017-09-18T18:45:04.641Z,84.50
2017-09-18T18:47:32.949Z,88.10
2017-09-18T18:50:01.166Z,83.50
2017-09-18T18:52:30.182Z,82.80
2017-09-18T18:54:58.621Z,82.90
2017-09-18T18:57:27.043Z,84.20
2017-09-18T18:59:56.306Z,85.50
2017-09-18T19:02:26.630Z,87.70
2017-09-18T19:06:40.273Z,85.50
2017-09-18T19:09:08.545Z,86.90
2017-09-18T19:11:36.797Z,85.90
2017-09-18T19:14:05.074Z,86.00
2017-09-18T19:16:33.795Z,86.40
2017-09-18T19:19:02.821Z,88.90
2017-09-18T19:21:31.821Z,86.50
2017-09-18T19:24:00.244Z,86.40
2017-09-18T19:26:28.479Z,88.30
2017-09-18T19:28:56.722Z,89.90
2017-09-18T19:31:25.006Z,87.60
2017-09-18T19:33:54.016Z,86.00
2017-09-18T19:36:22.657Z,86.00
2017-09-18T19:38:50.937Z,87.10
2017-09-18T19:41:19.205Z,85.60
2017-09-18T19:43:47.448Z,86.30
2017-09-18T19:46:15.953Z,85.70
2017-09-18T19:48:45.162Z,86.00
2017-09-18T19:51:13.529Z,86.90
2017-09-18T19:53:42.865Z,84.80
2017-09-18T19:56:11.874Z,86.20
2017-09-18T19:58:40.877Z,84.80
2017-09-18T20:01:09.221Z,84.80
2017-09-18T20:03:37.469Z,86.60
2017-09-18T20:06:05.713Z,85.80
2017-09-18T20:08:34.110Z,84.70
2017-09-18T20:11:02.426Z,86.70
2017-09-18T20:13:30.825Z,85.40
2017-09-18T20:15:59.866Z,86.30
2017-09-18T20:18:28.179Z,86.30
2017-09-18T20:20:57.478Z,87.60
2017-09-18T20:23:27.762Z,87.30
2017-09-18T20:25:56.076Z,87.60
2017-09-18T20:28:24.452Z,86.60
2017-09-18T20:30:52.902Z,86.70
2017-09-18T20:33:21.214Z,88.30
2017-09-18T20:35:49.578Z,88.70
2017-09-18T20:38:18.150Z,86.80
2017-09-18T20:40:46.393Z,86.40
2017-09-18T20:43:14.633Z,85.30
2017-09-18T20:45:42.981Z,85.50
2017-09-18T20:48:12.418Z,87.30
2017-09-18T20:50:40.666Z,86.40
2017-09-18T20:53:08.989Z,85.70
2017-09-18T20:55:38.002Z,87.00
2017-09-18T20:58:06.229Z,87.00
2017-09-18T21:00:34.498Z,86.90
2017-09-18T21:03:02.737Z,86.70
2017-09-18T21:05:30.993Z,87.20
2017-09-18T21:08:00.041Z,89.40
2017-09-18T21:10:28.284Z,89.40
2017-09-18T21:12:56.530Z,90.00
2017-09-18T21:15:26.181Z,89.60
2017-09-18T21:17:54.430Z,88.80
2017-09-18T21:20:23.438Z,89.50
2017-09-18T21:22:51.717Z,89.40
2017-09-18T21:25:21.164Z,90.70
2017-09-18T21:27:49.410Z,89.30
2017-09-18T21:30:17.702Z,90.00
2017-09-18T21:32:45.946Z,90.20
2017-09-18T21:35:14.179Z,89.60
2017-09-18T21:37:42.831Z,88.80
2017-09-18T21:40:11.462Z,90.60
2017-09-18T21:42:40.461Z,90.00
2017-09-18T21:45:09.493Z,90.40
2017-09-18T21:47:37.734Z,90.30
2017-09-18T21:50:05.978Z,91.20
2017-09-18T21:52:34.245Z,90.20
2017-09-18T21:55:02.485Z,90.40
2017-09-18T21:57:30.741Z,91.00
2017-09-18T22:00:00.081Z,90.80
2017-09-18T22:02:28.313Z,90.70
2017-09-18T22:04:56.557Z,90.80
2017-09-18T22:07:24.837Z,90.50
2017-09-18T22:09:53.081Z,91.70
2017-09-18T22:12:21.321Z,90.80
2017-09-18T22:14:50.351Z,90.90
2017-09-18T22:17:18.742Z,90.90
2017-09-18T22:19:46.980Z,90.50
2017-09-18T22:22:17.390Z,90.80
2017-09-18T22:24:45.645Z,90.80
2017-09-18T22:27:13.894Z,90.30
2017-09-18T22:29:42.172Z,90.40
2017-09-18T22:32:10.406Z,90.40
2017-09-18T22:34:39.415Z,91.10
2017-09-18T22:37:07.686Z,91.10
2017-09-18T22:39:35.918Z,91.30
2017-09-18T22:42:04.638Z,91.20
2017-09-18T22:44:33.221Z,90.40
2017-09-18T22:47:02.245Z,91.10
2017-09-18T22:49:30.496Z,91.10
2017-09-18T22:51:58.761Z,91.40
2017-09-18T22:54:27.770Z,91.40
2017-09-18T22:56:56.013Z,91.40
2017-09-18T22:59:24.293Z,92.50
2017-09-18T23:01:52.570Z,91.00
2017-09-18T23:04:20.812Z,91.40
2017-09-18T23:06:49.573Z,91.40
2017-09-18T23:09:17.826Z,91.40
2017-09-18T23:11:46.130Z,91.50
2017-09-18T23:14:14.402Z,91.40
2017-09-18T23:16:42.650Z,91.40
2017-09-18T23:19:11.832Z,91.80
2017-09-18T23:21:40.108Z,91.80
2017-09-18T23:24:08.356Z,91.70
2017-09-18T23:26:36.602Z,91.50
2017-09-18T23:29:05.087Z,91.60
2017-09-18T23:31:33.341Z,91.50
2017-09-18T23:34:01.581Z,92.10
2017-09-18T23:36:29.890Z,91.70
2017-09-18T23:38:58.902Z,91.70
2017-09-18T23:41:27.160Z,91.40
2017-09-18T23:43:56.290Z,91.10
2017-09-18T23:46:24.546Z,91.70
2017-09-18T23:48:53.568Z,92.00
2017-09-18T23:51:22.319Z,91.90
2017-09-18T23:53:50.565Z,91.40
2017-09-18T23:56:18.810Z,92.20
2017-09-18T23:58:47.080Z,91.90
